createdAt,value
2018-12-08T00:02:14.413Z,21.12
2018-12-08T00:04:41.746Z,21.93
2018-12-08T00:07:09.088Z,18.07
2018-12-08T00:09:36.691Z,22.50
2018-12-08T00:12:03.822Z,18.87
2018-12-08T00:14:31.005Z,18.85
2018-12-08T00:16:58.995Z,19.35
2018-12-08T00:19:27.727Z,21.23
2018-12-08T00:21:54.951Z,17.27
2018-12-08T00:24:22.009Z,27.27
2018-12-08T00:26:49.402Z,20.52
2018-12-08T00:29:16.377Z,23.67
2018-12-08T00:31:43.593Z,26.80
2018-12-08T00:34:10.790Z,27.77
2018-12-08T00:36:37.624Z,24.00
2018-12-08T00:39:05.349Z,21.17
2018-12-08T00:41:32.529Z,21.23
2018-12-08T00:43:59.378Z,29.95
2018-12-08T00:46:27.488Z,23.10
2018-12-08T00:48:56.219Z,23.20
2018-12-08T00:51:23.261Z,19.45
2018-12-08T00:53:50.240Z,25.12
2018-12-08T00:56:17.344Z,22.98
2018-12-08T00:58:44.699Z,25.23
2018-12-08T01:01:11.827Z,29.70
2018-12-08T01:03:39.324Z,24.65
2018-12-08T01:06:06.538Z,19.77
2018-12-08T01:08:33.774Z,21.02
2018-12-08T01:11:00.962Z,22.42
2018-12-08T01:13:27.887Z,23.77
2018-12-08T01:15:55.083Z,21.90
2018-12-08T01:18:22.395Z,23.47
2018-12-08T01:20:49.135Z,22.58
2018-12-08T01:23:15.899Z,19.27
2018-12-08T01:25:43.559Z,25.05
2018-12-08T01:28:10.421Z,26.77
2018-12-08T01:30:37.356Z,24.23
2018-12-08T01:33:04.767Z,23.25
2018-12-08T01:35:31.633Z,24.45
2018-12-08T01:37:58.713Z,22.40
2018-12-08T01:40:25.559Z,20.82
2018-12-08T01:42:52.510Z,20.65
2018-12-08T01:45:19.396Z,19.85
2018-12-08T01:47:46.447Z,16.93
2018-12-08T01:50:13.443Z,18.10
2018-12-08T01:52:40.441Z,18.65
2018-12-08T01:55:07.899Z,18.75
2018-12-08T01:57:34.946Z,15.13
2018-12-08T02:00:01.805Z,17.15
2018-12-08T02:02:29.649Z,18.25
2018-12-08T02:04:56.967Z,16.90
2018-12-08T02:07:24.233Z,17.23
2018-12-08T02:09:51.333Z,12.65
2018-12-08T02:12:18.746Z,11.35
2018-12-08T02:14:45.665Z,18.05
2018-12-08T02:17:13.534Z,15.58
2018-12-08T02:19:40.931Z,12.85
2018-12-08T02:22:08.139Z,14.15
2018-12-08T02:24:35.783Z,12.82
2018-12-08T02:27:02.951Z,13.68
2018-12-08T02:29:30.764Z,18.15
2018-12-08T02:31:58.250Z,14.63
2018-12-08T02:34:25.405Z,13.78
2018-12-08T02:36:52.361Z,14.18
2018-12-08T02:39:19.346Z,15.65
2018-12-08T02:41:46.784Z,11.63
2018-12-08T02:44:13.869Z,12.85
2018-12-08T02:46:40.713Z,15.58
2018-12-08T02:49:07.766Z,17.70
2018-12-08T02:51:39.083Z,14.23
2018-12-08T02:54:06.447Z,13.95
2018-12-08T02:56:34.047Z,14.43
2018-12-08T02:59:01.659Z,18.85
2018-12-08T03:01:29.110Z,14.00
2018-12-08T03:03:56.225Z,13.45
2018-12-08T03:06:24.462Z,16.90
2018-12-08T03:08:51.852Z,15.13
2018-12-08T03:11:19.032Z,11.18
2018-12-08T03:13:46.312Z,12.25
2018-12-08T03:16:13.649Z,14.68
2018-12-08T03:18:40.777Z,14.58
2018-12-08T03:21:07.655Z,13.00
2018-12-08T03:23:34.858Z,13.05
2018-12-08T03:26:05.387Z,17.00
2018-12-08T03:28:32.936Z,12.07
2018-12-08T03:31:00.359Z,13.45
2018-12-08T03:33:27.418Z,18.77
2018-12-08T03:35:54.386Z,17.42
2018-12-08T03:38:21.457Z,14.38
2018-12-08T03:40:48.803Z,17.75
2018-12-08T03:43:16.099Z,17.20
2018-12-08T03:45:43.083Z,14.00
2018-12-08T03:48:10.550Z,13.30
2018-12-08T03:50:37.578Z,13.60
2018-12-08T03:53:04.483Z,14.93
2018-12-08T03:55:31.348Z,14.87
2018-12-08T03:57:58.355Z,15.78
2018-12-08T04:00:25.179Z,18.98
2018-12-08T04:02:52.182Z,17.85
2018-12-08T04:05:19.352Z,14.90
2018-12-08T04:07:46.603Z,13.03
2018-12-08T04:10:14.378Z,13.35
2018-12-08T04:12:41.550Z,14.18
2018-12-08T04:15:08.419Z,14.03
2018-12-08T04:17:35.732Z,11.65
2018-12-08T04:20:02.655Z,12.93
2018-12-08T04:22:29.813Z,13.90
2018-12-08T04:24:56.886Z,14.45
2018-12-08T04:27:23.966Z,13.13
2018-12-08T04:29:51.900Z,13.78
2018-12-08T04:32:19.172Z,10.80
2018-12-08T04:34:46.822Z,8.63
2018-12-08T04:37:13.774Z,8.23
2018-12-08T04:39:40.956Z,11.40
2018-12-08T04:42:08.281Z,12.18
2018-12-08T04:44:35.729Z,8.73
2018-12-08T04:47:02.769Z,5.92
2018-12-08T04:49:29.850Z,6.33
2018-12-08T04:51:56.737Z,4.35
2018-12-08T04:54:23.766Z,3.75
2018-12-08T04:56:51.481Z,6.25
2018-12-08T04:59:19.000Z,4.87
2018-12-08T05:01:46.141Z,6.15
2018-12-08T05:04:13.391Z,5.12
2018-12-08T05:06:40.386Z,6.58
2018-12-08T05:09:07.505Z,6.40
2018-12-08T05:11:35.160Z,5.00
2018-12-08T05:14:02.385Z,4.17
2018-12-08T05:16:29.478Z,4.12
2018-12-08T05:18:56.520Z,3.87
2018-12-08T05:21:23.559Z,4.85
2018-12-08T05:23:50.877Z,3.87
2018-12-08T05:26:18.039Z,3.35
2018-12-08T05:28:45.463Z,3.25
2018-12-08T05:31:13.306Z,4.17
2018-12-08T05:33:40.179Z,2.80
2018-12-08T05:36:07.126Z,2.15
2018-12-08T05:38:34.103Z,5.95
2018-12-08T05:41:01.084Z,2.15
2018-12-08T05:43:28.551Z,1.95
2018-12-08T05:45:55.586Z,2.62
2018-12-08T05:48:22.988Z,1.50
2018-12-08T05:50:50.085Z,3.05
2018-12-08T05:53:17.239Z,3.05
2018-12-08T05:55:44.514Z,3.75
2018-12-08T05:58:11.492Z,3.17
2018-12-08T06:00:38.605Z,4.28
2018-12-08T06:03:06.025Z,2.87
2018-12-08T06:05:33.099Z,2.98
2018-12-08T06:08:00.041Z,4.35
2018-12-08T06:10:27.499Z,3.58
2018-12-08T06:12:54.551Z,4.33
2018-12-08T06:15:21.571Z,5.15
2018-12-08T06:17:48.642Z,10.53
2018-12-08T06:20:15.706Z,4.10
2018-12-08T06:22:44.675Z,5.22
2018-12-08T06:25:11.684Z,5.85
2018-12-08T06:27:38.638Z,3.42
2018-12-08T06:30:05.717Z,3.08
2018-12-08T06:32:32.889Z,3.35
2018-12-08T06:35:00.222Z,3.72
2018-12-08T06:37:27.156Z,3.90
2018-12-08T06:39:54.100Z,2.62
2018-12-08T06:42:21.379Z,7.20
2018-12-08T06:44:48.291Z,5.37
2018-12-08T06:47:15.206Z,3.10
2018-12-08T06:49:42.596Z,7.33
2018-12-08T06:52:10.425Z,4.50
2018-12-08T06:54:37.745Z,3.58
2018-12-08T06:57:04.840Z,3.45
2018-12-08T06:59:32.012Z,5.92
2018-12-08T07:01:59.978Z,3.85
2018-12-08T07:04:27.175Z,3.17
2018-12-08T07:06:54.614Z,3.40
2018-12-08T07:09:24.884Z,2.95
2018-12-08T07:11:51.492Z,2.67
2018-12-08T07:14:18.951Z,3.92
2018-12-08T07:16:45.944Z,2.27
2018-12-08T07:19:12.946Z,3.35
2018-12-08T07:21:39.731Z,2.62
2018-12-08T07:24:06.660Z,4.15
2018-12-08T07:26:33.598Z,3.83
2018-12-08T07:29:00.704Z,3.17
2018-12-08T07:31:27.982Z,4.37
2018-12-08T07:33:55.145Z,3.30
2018-12-08T07:36:22.034Z,4.42
2018-12-08T07:38:49.403Z,7.45
2018-12-08T07:41:16.192Z,5.85
2018-12-08T07:43:43.116Z,4.28
2018-12-08T07:46:10.138Z,6.50
2018-12-08T07:48:37.219Z,4.97
2018-12-08T07:51:04.019Z,6.10
2018-12-08T07:53:32.355Z,5.92
2018-12-08T07:56:00.139Z,5.87
2018-12-08T07:58:27.398Z,5.47
2018-12-08T08:00:54.491Z,5.78
2018-12-08T08:03:21.611Z,4.28
2018-12-08T08:05:49.372Z,5.25
2018-12-08T08:08:16.288Z,5.15
2018-12-08T08:10:43.439Z,10.08
2018-12-08T08:13:10.807Z,6.75
2018-12-08T08:15:38.312Z,5.75
2018-12-08T08:18:05.597Z,6.25
2018-12-08T08:20:32.886Z,6.75
2018-12-08T08:22:59.960Z,8.50
2018-12-08T08:25:27.339Z,11.40
2018-12-08T08:27:54.672Z,8.63
2018-12-08T08:30:21.646Z,11.18
2018-12-08T08:32:49.492Z,8.60
2018-12-08T08:35:17.514Z,11.05
2018-12-08T08:37:44.916Z,8.00
2018-12-08T08:40:11.957Z,9.03
2018-12-08T08:42:38.854Z,9.78
2018-12-08T08:45:06.116Z,4.60
2018-12-08T08:47:33.321Z,3.60
2018-12-08T08:50:00.914Z,4.90
2018-12-08T08:52:28.152Z,4.08
2018-12-08T08:54:55.703Z,3.90
2018-12-08T08:57:22.562Z,4.45
2018-12-08T08:59:49.843Z,4.15
2018-12-08T09:02:16.898Z,4.85
2018-12-08T09:04:43.896Z,5.20
2018-12-08T09:07:10.861Z,5.05
2018-12-08T09:09:37.925Z,6.75
2018-12-08T09:12:04.839Z,5.90
2018-12-08T09:14:31.762Z,4.33
2018-12-08T09:16:58.720Z,4.10
2018-12-08T09:19:26.029Z,5.00
2018-12-08T09:21:52.855Z,6.80
2018-12-08T09:24:19.873Z,6.83
2018-12-08T09:26:47.017Z,20.35
2018-12-08T09:29:13.869Z,14.18
2018-12-08T09:31:40.831Z,13.72
2018-12-08T09:34:07.586Z,13.93
2018-12-08T09:36:34.546Z,14.45
2018-12-08T09:39:01.319Z,15.68
2018-12-08T09:41:28.294Z,17.23
2018-12-08T09:43:55.147Z,13.05
2018-12-08T09:46:22.122Z,11.83
2018-12-08T09:48:49.260Z,11.33
2018-12-08T09:51:16.570Z,15.28
2018-12-08T09:53:44.370Z,14.85
2018-12-08T09:56:11.338Z,11.35
2018-12-08T09:58:38.299Z,11.22
2018-12-08T10:01:05.156Z,13.75
2018-12-08T10:03:31.910Z,13.40
2018-12-08T10:05:58.885Z,8.63
2018-12-08T10:08:25.639Z,12.45
2018-12-08T10:10:52.796Z,9.60
2018-12-08T10:13:19.896Z,13.60
2018-12-08T10:15:46.852Z,10.15
2018-12-08T10:18:13.629Z,11.65
2018-12-08T10:20:40.586Z,13.65
2018-12-08T10:23:07.969Z,11.22
2018-12-08T10:25:34.822Z,10.60
2018-12-08T10:28:01.602Z,9.73
2018-12-08T10:30:28.503Z,8.33
2018-12-08T10:32:55.225Z,9.08
2018-12-08T10:35:22.703Z,11.85
2018-12-08T10:37:49.561Z,12.07
2018-12-08T10:40:16.543Z,11.18
2018-12-08T10:42:43.279Z,11.12
2018-12-08T10:45:10.139Z,11.43
2018-12-08T10:47:36.918Z,9.65
2018-12-08T10:50:03.786Z,9.10
2018-12-08T10:52:30.752Z,10.43
2018-12-08T10:54:57.710Z,15.08
2018-12-08T10:57:24.987Z,18.23
2018-12-08T10:59:52.221Z,10.85
2018-12-08T11:02:19.330Z,9.63
2018-12-08T11:04:46.199Z,8.65
2018-12-08T11:07:12.957Z,9.05
2018-12-08T11:09:39.916Z,9.78
2018-12-08T11:12:06.699Z,9.15
2018-12-08T11:14:33.445Z,8.55
2018-12-08T11:17:00.523Z,9.13
2018-12-08T11:19:27.381Z,7.95
2018-12-08T11:21:54.351Z,8.88
2018-12-08T11:24:21.319Z,6.25
2018-12-08T11:26:48.183Z,7.50
2018-12-08T11:29:15.055Z,9.73
2018-12-08T11:31:41.802Z,8.23
2018-12-08T11:34:08.680Z,6.58
2018-12-08T11:36:35.540Z,11.28
2018-12-08T11:39:02.405Z,8.65
2018-12-08T11:41:29.357Z,9.53
2018-12-08T11:43:56.221Z,9.08
2018-12-08T11:46:23.552Z,7.62
2018-12-08T11:48:50.712Z,8.28
2018-12-08T11:51:19.105Z,8.18
2018-12-08T11:53:46.656Z,8.20
2018-12-08T11:56:13.845Z,6.75
2018-12-08T11:58:41.303Z,7.15
2018-12-08T12:01:10.629Z,9.60
2018-12-08T12:03:37.498Z,8.90
2018-12-08T12:06:05.739Z,9.33
2018-12-08T12:08:36.227Z,8.85
2018-12-08T12:11:03.512Z,9.15
2018-12-08T12:13:30.401Z,7.78
2018-12-08T12:15:57.758Z,6.67
2018-12-08T12:18:25.503Z,8.73
2018-12-08T12:20:52.700Z,9.68
2018-12-08T12:23:20.206Z,5.78
2018-12-08T12:25:47.255Z,6.03
2018-12-08T12:28:14.061Z,8.23
2018-12-08T12:30:40.982Z,7.60
2018-12-08T12:33:07.966Z,6.72
2018-12-08T12:35:34.806Z,7.50
2018-12-08T12:38:01.510Z,12.33
2018-12-08T12:40:28.947Z,7.72
2018-12-08T12:42:55.802Z,8.35
2018-12-08T12:45:23.003Z,7.37
2018-12-08T12:47:50.054Z,8.73
2018-12-08T12:50:18.288Z,7.90
2018-12-08T12:52:45.394Z,8.48
2018-12-08T12:55:12.489Z,11.28
2018-12-08T12:57:39.541Z,6.78
2018-12-08T13:00:06.417Z,11.55
2018-12-08T13:02:33.358Z,8.85
2018-12-08T13:05:00.615Z,8.95
2018-12-08T13:07:27.495Z,7.80
2018-12-08T13:09:54.502Z,7.03
2018-12-08T13:12:21.406Z,6.05
2018-12-08T13:14:49.106Z,9.48
2018-12-08T13:17:15.806Z,6.58
2018-12-08T13:19:42.486Z,5.58
2018-12-08T13:22:09.441Z,5.33
2018-12-08T13:24:36.161Z,8.58
2018-12-08T13:27:03.285Z,5.35
2018-12-08T13:29:29.973Z,5.58
2018-12-08T13:31:56.894Z,6.33
2018-12-08T13:34:23.758Z,7.85
2018-12-08T13:36:50.534Z,6.70
2018-12-08T13:39:17.279Z,9.25
2018-12-08T13:41:44.143Z,5.97
2018-12-08T13:44:10.917Z,5.70
2018-12-08T13:46:37.786Z,6.97
2018-12-08T13:49:04.653Z,4.65
2018-12-08T13:51:31.515Z,5.45
2018-12-08T13:53:58.375Z,5.90
2018-12-08T13:56:25.441Z,4.78
2018-12-08T13:58:52.404Z,5.20
2018-12-08T14:01:19.285Z,6.67
2018-12-08T14:03:46.146Z,6.25
2018-12-08T14:06:13.007Z,5.67
2018-12-08T14:08:39.877Z,6.80
2018-12-08T14:11:06.851Z,7.85
2018-12-08T14:13:33.701Z,6.60
2018-12-08T14:16:00.679Z,5.85
2018-12-08T14:18:27.435Z,5.50
2018-12-08T14:20:55.426Z,5.70
2018-12-08T14:23:22.293Z,6.30
2018-12-08T14:25:49.049Z,7.62
2018-12-08T14:28:15.813Z,7.08
2018-12-08T14:30:42.584Z,5.78
2018-12-08T14:33:09.445Z,5.80
2018-12-08T14:35:36.421Z,6.97
2018-12-08T14:38:03.161Z,6.58
2018-12-08T14:40:30.042Z,8.45
2018-12-08T14:42:56.999Z,9.00
2018-12-08T14:45:23.867Z,5.00
2018-12-08T14:47:50.730Z,5.72
2018-12-08T14:50:17.491Z,6.47
2018-12-08T14:52:44.362Z,4.62
2018-12-08T14:55:11.222Z,7.92
2018-12-08T14:57:38.085Z,4.35
2018-12-08T15:00:05.069Z,3.33
2018-12-08T15:02:32.023Z,2.95
2018-12-08T15:04:59.006Z,3.75
2018-12-08T15:07:25.804Z,2.40
2018-12-08T15:09:52.622Z,3.10
2018-12-08T15:12:19.579Z,2.90
2018-12-08T15:14:46.327Z,2.95
2018-12-08T15:17:13.233Z,2.25
2018-12-08T15:19:39.963Z,2.22
2018-12-08T15:22:06.942Z,4.00
2018-12-08T15:24:33.904Z,2.80
2018-12-08T15:27:00.675Z,3.77
2018-12-08T15:29:27.633Z,2.37
2018-12-08T15:31:54.731Z,1.05
2018-12-08T15:34:21.549Z,1.17
2018-12-08T15:36:48.536Z,6.47
2018-12-08T15:39:15.842Z,1.82
2018-12-08T15:41:42.780Z,1.50
2018-12-08T15:44:09.891Z,2.50
2018-12-08T15:46:37.166Z,3.80
2018-12-08T15:49:04.164Z,4.60
2018-12-08T15:51:33.050Z,5.53
2018-12-08T15:53:59.972Z,4.65
2018-12-08T15:56:27.379Z,6.08
2018-12-08T15:58:54.302Z,10.38
2018-12-08T16:01:21.073Z,6.60
2018-12-08T16:03:48.023Z,5.83
2018-12-08T16:06:14.901Z,9.28
2018-12-08T16:08:41.663Z,2.22
2018-12-08T16:11:08.498Z,2.40
2018-12-08T16:13:35.387Z,1.70
2018-12-08T16:16:02.242Z,2.40
2018-12-08T16:18:29.502Z,2.92
2018-12-08T16:20:56.301Z,7.62
2018-12-08T16:23:23.571Z,7.00
2018-12-08T16:25:50.665Z,5.25
2018-12-08T16:28:19.020Z,4.83
2018-12-08T16:30:46.421Z,1.75
2018-12-08T16:33:14.815Z,1.85
2018-12-08T16:35:41.788Z,1.70
2018-12-08T16:38:08.940Z,2.52
2018-12-08T16:40:36.154Z,1.62
2018-12-08T16:43:03.341Z,2.05
2018-12-08T16:45:30.457Z,2.60
2018-12-08T16:47:57.433Z,2.25
2018-12-08T16:50:24.280Z,3.17
2018-12-08T16:52:51.550Z,2.87
2018-12-08T16:55:18.344Z,2.80
2018-12-08T16:57:45.502Z,6.05
2018-12-08T17:00:12.290Z,3.25
2018-12-08T17:02:39.442Z,6.03
2018-12-08T17:05:06.386Z,8.73
2018-12-08T17:07:33.782Z,8.20
2018-12-08T17:10:00.650Z,8.55
2018-12-08T17:12:27.367Z,12.43
2018-12-08T17:14:54.167Z,11.20
2018-12-08T17:17:21.228Z,12.78
2018-12-08T17:19:48.409Z,11.75
2018-12-08T17:22:15.377Z,8.55
2018-12-08T17:24:42.373Z,9.73
2018-12-08T17:27:10.379Z,12.47
2018-12-08T17:29:37.399Z,15.15
2018-12-08T17:32:04.281Z,17.80
2018-12-08T17:34:31.344Z,18.62
2018-12-08T17:36:58.075Z,9.28
2018-12-08T17:39:25.283Z,7.03
2018-12-08T17:41:52.146Z,5.83
2018-12-08T17:44:19.010Z,6.70
2018-12-08T17:46:45.981Z,7.50
2018-12-08T17:49:13.053Z,11.00
2018-12-08T17:51:40.009Z,7.87
2018-12-08T17:54:06.869Z,12.03
2018-12-08T17:56:33.834Z,8.63
2018-12-08T17:59:00.930Z,8.43
2018-12-08T18:01:27.967Z,10.55
2018-12-08T18:03:56.187Z,9.65
2018-12-08T18:06:23.160Z,11.68
2018-12-08T18:08:50.004Z,9.20
2018-12-08T18:11:16.749Z,9.20
2018-12-08T18:13:44.085Z,7.65
2018-12-08T18:16:11.287Z,6.85
2018-12-08T18:18:39.961Z,9.15
2018-12-08T18:21:07.349Z,9.08
2018-12-08T18:23:35.650Z,6.90
2018-12-08T18:26:03.504Z,8.13
2018-12-08T18:28:30.535Z,10.75
2018-12-08T18:30:57.631Z,10.08
2018-12-08T18:33:25.342Z,10.23
2018-12-08T18:35:54.760Z,11.35
2018-12-08T18:38:23.259Z,9.58
2018-12-08T18:40:50.273Z,10.08
2018-12-08T18:43:17.984Z,12.95
2018-12-08T18:45:45.006Z,14.63
2018-12-08T18:48:12.357Z,11.50
2018-12-08T18:50:39.503Z,11.35
2018-12-08T18:53:06.662Z,13.75
2018-12-08T18:55:33.965Z,12.73
2018-12-08T18:58:00.985Z,16.23
2018-12-08T19:00:28.185Z,12.65
2018-12-08T19:02:55.245Z,13.68
2018-12-08T19:05:22.326Z,15.45
2018-12-08T19:07:50.326Z,11.75
2018-12-08T19:10:17.545Z,10.25
2018-12-08T19:12:44.624Z,13.22
2018-12-08T19:15:11.985Z,12.45
2018-12-08T19:17:39.422Z,12.20
2018-12-08T19:20:06.801Z,10.45
2018-12-08T19:22:33.821Z,13.20
2018-12-08T19:25:01.123Z,11.20
2018-12-08T19:27:28.202Z,9.35
2018-12-08T19:29:55.483Z,7.70
2018-12-08T19:34:57.162Z,11.38
2018-12-08T19:37:23.982Z,12.15
2018-12-08T19:39:51.202Z,11.83
2018-12-08T19:42:18.225Z,10.88
2018-12-08T19:44:45.902Z,10.28
2018-12-08T19:47:13.442Z,11.83
2018-12-08T19:49:40.507Z,12.07
2018-12-08T19:52:07.895Z,11.25
2018-12-08T19:54:36.586Z,9.93
2018-12-08T19:57:04.367Z,15.13
2018-12-08T19:59:31.437Z,6.97
2018-12-08T20:01:58.518Z,8.05
2018-12-08T20:04:25.616Z,11.93
2018-12-08T20:06:53.628Z,14.25
2018-12-08T20:09:21.008Z,11.68
2018-12-08T20:11:47.806Z,13.13
2018-12-08T20:14:14.787Z,21.00
2018-12-08T20:16:41.885Z,17.90
2018-12-08T20:19:08.923Z,19.98
2018-12-08T20:21:35.982Z,14.65
2018-12-08T20:24:03.106Z,12.15
2018-12-08T20:26:30.218Z,14.65
2018-12-08T20:28:59.551Z,11.80
2018-12-08T20:31:26.738Z,10.68
2018-12-08T20:33:54.798Z,10.03
2018-12-08T20:36:21.697Z,9.83
2018-12-08T20:38:49.241Z,12.15
2018-12-08T20:41:16.457Z,7.85
2018-12-08T20:43:43.837Z,13.83
2018-12-08T20:46:10.990Z,9.00
2018-12-08T20:48:38.350Z,12.30
2018-12-08T20:51:05.730Z,10.28
2018-12-08T20:53:33.570Z,9.18
2018-12-08T20:56:00.497Z,7.80
2018-12-08T20:58:27.577Z,8.23
2018-12-08T21:00:54.577Z,9.83
2018-12-08T21:03:23.525Z,5.80
2018-12-08T21:05:50.777Z,9.85
2018-12-08T21:08:17.777Z,10.00
2018-12-08T21:10:44.739Z,8.58
2018-12-08T21:13:11.797Z,8.55
2018-12-08T21:15:38.579Z,9.45
2018-12-08T21:18:05.826Z,9.20
2018-12-08T21:20:32.828Z,9.15
2018-12-08T21:22:59.825Z,7.25
2018-12-08T21:25:27.500Z,11.40
2018-12-08T21:27:54.626Z,8.58
2018-12-08T21:30:21.954Z,14.68
2018-12-08T21:32:48.935Z,9.80
2018-12-08T21:35:16.234Z,8.13
2018-12-08T21:37:43.800Z,13.28
2018-12-08T21:40:11.178Z,12.18
2018-12-08T21:42:38.933Z,14.43
2018-12-08T21:45:06.131Z,20.80
2018-12-08T21:47:33.369Z,12.80
2018-12-08T21:50:00.750Z,12.80
2018-12-08T21:52:27.896Z,11.40
2018-12-08T21:54:54.935Z,9.48
2018-12-08T21:57:21.850Z,12.35
2018-12-08T21:59:49.063Z,10.23
2018-12-08T22:02:16.295Z,16.95
2018-12-08T22:04:43.338Z,15.58
2018-12-08T22:07:10.692Z,22.32
2018-12-08T22:09:37.893Z,15.50
2018-12-08T22:12:04.874Z,19.07
2018-12-08T22:14:31.922Z,17.73
2018-12-08T22:16:59.891Z,20.45
2018-12-08T22:19:27.085Z,21.50
2018-12-08T22:21:54.374Z,19.77
2018-12-08T22:24:21.432Z,14.75
2018-12-08T22:26:48.706Z,20.77
2018-12-08T22:29:16.605Z,13.03
2018-12-08T22:31:44.121Z,17.80
2018-12-08T22:34:11.659Z,16.23
2018-12-08T22:36:38.718Z,13.05
2018-12-08T22:39:05.690Z,11.83
2018-12-08T22:41:32.859Z,11.73
2018-12-08T22:44:01.160Z,12.15
2018-12-08T22:46:28.354Z,14.63
2018-12-08T22:48:55.454Z,20.43
2018-12-08T22:51:22.358Z,12.88
2018-12-08T22:53:49.731Z,14.60
2018-12-08T22:56:17.250Z,10.35
2018-12-08T22:58:44.290Z,11.85
2018-12-08T23:01:11.738Z,21.95
2018-12-08T23:03:38.740Z,11.53
2018-12-08T23:06:09.667Z,10.95
2018-12-08T23:08:36.541Z,10.55
2018-12-08T23:11:03.960Z,11.75
2018-12-08T23:13:31.599Z,9.98
2018-12-08T23:15:58.615Z,8.13
2018-12-08T23:18:27.228Z,12.00
2018-12-08T23:20:55.507Z,8.68
2018-12-08T23:23:23.003Z,10.20
2018-12-08T23:25:50.435Z,17.73
2018-12-08T23:28:18.439Z,12.85
2018-12-08T23:30:45.787Z,13.25
2018-12-08T23:33:12.849Z,12.63
2018-12-08T23:35:40.628Z,15.30
2018-12-08T23:38:09.062Z,16.97
2018-12-08T23:40:37.146Z,12.78
2018-12-08T23:43:04.175Z,13.13
2018-12-08T23:45:32.654Z,20.55
2018-12-08T23:47:59.880Z,18.52
2018-12-08T23:50:27.330Z,16.40
2018-12-08T23:52:54.697Z,18.02
2018-12-08T23:55:22.269Z,10.55
2018-12-08T23:57:49.498Z,15.65
